Huvudsida
METAR-TAF:

METAR-TAF

Flygplatser :

Belgrad-Nikola Teslas flygplats

Belgrad, Serbien

latitud: 44-49N, longitud: 020-17E, höjd: 96 m

Aktuellt väderrapport

Denna rapport gjordes för 21 minuter sedan, klockan 23:30 UTC
Vind 5 kt från syd/sydväst
Temperatur 18°C
Fuktighet 88%
Tryck 1014 hPa
Sikt 10 km eller mer
Inga moln under 1 500 m eller inga cumulonimbus

METAR: LYBE 262330Z 21005KT CAVOK 18/16 Q1014 NOSIG

Tid: 01:51 (23:51 UTC)

Väderprognos

Denna rapport gjordes för 51 minuter sedan, klockan 23:00 UTC
Prognos gäller från 27 kl. 00 UTC till 27 kl. 24 UTC
Vind 8 kt från syd/sydost
Sikt 10 km eller mer
Spridda moln på en höjd av 4000 ft
Temporärt
från 27 kl. 02 UTC till 27 kl. 05 UTC
regn
Temporärt
från 27 kl. 13 UTC till 27 kl. 18 UTC
Sikt: 5000 m
Spridda moln på en höjd av 3300 ft, Högtornande cumulus.
Brutna moln på en höjd av 4000 ft
regnskurar

TAF: LYBE 262300Z 2700/2724 15008KT 9999 SCT040 TX24/2712Z TN16/2703Z TEMPO 2702/2705 RA TEMPO 2713/2718 5000 SHRA SCT033TCU BKN040

Aktuella väderrapporter och prognoser från 4000 flygplatser (METAR- och TAF-rapporter).

De tillgängliga stationerna syns som gula och röda prickar på kartan.

För musen över prickarna för att se namnen på stationerna.

Klicka sedan för att få väderrapporter och prognoser.

För att ändra kartan: Klicka på de gröna knapparna med ett svart kors på för att zooma in; den gröna knappen med ett streck på för att zooma ut; eller på de gröna pilarna för angränsande kartor.


METAR-TAF: